createdAt,value
2018-09-06T00:00:20.073Z,9.73
2018-09-06T00:02:55.550Z,13.58
2018-09-06T00:05:31.068Z,7.58
2018-09-06T00:08:06.779Z,8.50
2018-09-06T00:10:42.106Z,9.53
2018-09-06T00:13:17.533Z,7.20
2018-09-06T00:15:52.810Z,10.63
2018-09-06T00:18:28.582Z,9.30
2018-09-06T00:21:04.040Z,11.63
2018-09-06T00:23:39.638Z,7.20
2018-09-06T00:26:15.146Z,6.70
2018-09-06T00:28:50.799Z,7.85
2018-09-06T00:31:26.224Z,7.72
2018-09-06T00:34:01.591Z,20.23
2018-09-06T00:36:37.059Z,8.25
2018-09-06T00:39:12.758Z,6.97
2018-09-06T00:41:48.056Z,10.48
2018-09-06T00:44:23.506Z,7.37
2018-09-06T00:46:58.737Z,7.45
2018-09-06T00:49:34.755Z,7.80
2018-09-06T00:52:10.215Z,10.80
2018-09-06T00:54:45.653Z,7.85
2018-09-06T00:57:21.081Z,8.45
2018-09-06T00:59:56.477Z,15.53
2018-09-06T01:02:32.046Z,7.75
2018-09-06T01:05:07.599Z,7.80
2018-09-06T01:07:42.991Z,6.90
2018-09-06T01:10:18.782Z,8.18
2018-09-06T01:12:54.126Z,9.53
2018-09-06T01:15:29.625Z,12.95
2018-09-06T01:18:05.219Z,9.68
2018-09-06T01:20:40.550Z,8.05
2018-09-06T01:23:15.936Z,18.60
2018-09-06T01:25:51.181Z,8.28
2018-09-06T01:28:26.537Z,9.40
2018-09-06T01:31:02.047Z,7.33
2018-09-06T01:33:37.566Z,8.65
2018-09-06T01:36:18.356Z,10.53
2018-09-06T01:38:53.781Z,11.33
2018-09-06T01:41:29.265Z,12.07
2018-09-06T01:44:05.218Z,10.90
2018-09-06T01:46:41.079Z,11.03
2018-09-06T01:49:16.660Z,14.68
2018-09-06T01:51:52.260Z,7.90
2018-09-06T01:54:27.625Z,13.10
2018-09-06T01:57:03.098Z,9.48
2018-09-06T01:59:39.830Z,9.50
2018-09-06T02:02:16.558Z,11.05
2018-09-06T02:04:51.796Z,9.93
2018-09-06T02:07:27.748Z,14.60
2018-09-06T02:10:03.129Z,17.40
2018-09-06T02:12:38.508Z,10.15
2018-09-06T02:15:13.914Z,11.33
2018-09-06T02:17:49.305Z,10.88
2018-09-06T02:20:24.595Z,13.80
2018-09-06T02:23:00.173Z,11.08
2018-09-06T02:25:35.531Z,10.20
2018-09-06T02:28:11.181Z,11.85
2018-09-06T02:30:46.821Z,12.73
2018-09-06T02:33:22.182Z,12.25
2018-09-06T02:35:57.590Z,13.80
2018-09-06T02:38:33.110Z,13.83
2018-09-06T02:41:08.453Z,11.78
2018-09-06T02:43:43.955Z,11.83
2018-09-06T02:46:19.341Z,13.78
2018-09-06T02:48:54.938Z,18.37
2018-09-06T02:51:30.561Z,13.18
2018-09-06T02:54:06.021Z,14.53
2018-09-06T02:56:41.470Z,14.25
2018-09-06T02:59:17.061Z,13.70
2018-09-06T03:01:52.488Z,12.75
2018-09-06T03:04:27.921Z,17.20
2018-09-06T03:07:03.561Z,17.57
2018-09-06T03:09:39.221Z,21.33
2018-09-06T03:12:14.451Z,20.62
2018-09-06T03:14:50.141Z,18.07
2018-09-06T03:17:25.641Z,16.75
2018-09-06T03:20:01.233Z,17.50
2018-09-06T03:22:36.757Z,19.98
2018-09-06T03:25:12.245Z,23.80
2018-09-06T03:27:47.585Z,19.87
2018-09-06T03:30:22.979Z,17.90
2018-09-06T03:32:58.609Z,19.35
2018-09-06T03:35:34.153Z,21.07
2018-09-06T03:38:09.613Z,25.37
2018-09-06T03:40:45.157Z,21.73
2018-09-06T03:43:20.521Z,22.25
2018-09-06T03:45:56.103Z,22.80
2018-09-06T03:48:31.499Z,23.60
2018-09-06T03:51:07.556Z,23.70
2018-09-06T03:53:42.725Z,23.00
2018-09-06T03:56:18.182Z,25.02
2018-09-06T03:58:53.657Z,22.27
2018-09-06T04:01:29.265Z,26.42
2018-09-06T04:04:04.518Z,24.75
2018-09-06T04:06:39.934Z,23.47
2018-09-06T04:09:15.380Z,28.65
2018-09-06T04:11:50.938Z,35.23
2018-09-06T04:14:26.469Z,28.80
2018-09-06T04:17:01.885Z,28.98
2018-09-06T04:19:37.217Z,27.95
2018-09-06T04:22:13.028Z,27.35
2018-09-06T04:24:48.425Z,31.70
2018-09-06T04:27:24.112Z,33.55
2018-09-06T04:29:59.505Z,31.12
2018-09-06T04:32:34.915Z,34.50
2018-09-06T04:35:10.169Z,36.40
2018-09-06T04:37:45.601Z,28.35
2018-09-06T04:40:20.820Z,32.28
2018-09-06T04:42:56.188Z,34.60
2018-09-06T04:45:31.699Z,30.17
2018-09-06T04:48:07.325Z,39.50
2018-09-06T04:50:42.864Z,29.65
2018-09-06T04:53:18.547Z,34.15
2018-09-06T04:55:53.813Z,37.80
2018-09-06T04:58:29.233Z,35.13
2018-09-06T05:01:04.664Z,36.63
2018-09-06T05:03:40.138Z,44.27
2018-09-06T05:06:15.571Z,36.08
2018-09-06T05:08:50.942Z,34.53
2018-09-06T05:11:26.459Z,36.75
2018-09-06T05:14:02.039Z,32.98
2018-09-06T05:16:38.176Z,36.48
2018-09-06T05:19:13.621Z,37.15
2018-09-06T05:21:49.182Z,34.50
2018-09-06T05:24:24.809Z,31.35
2018-09-06T05:27:00.357Z,31.27
2018-09-06T05:29:36.089Z,32.60
2018-09-06T05:32:11.309Z,29.37
2018-09-06T05:34:46.978Z,30.80
2018-09-06T05:37:22.332Z,30.15
2018-09-06T05:39:58.015Z,29.80
2018-09-06T05:42:33.390Z,37.35
2018-09-06T05:45:09.235Z,30.52
2018-09-06T05:47:47.520Z,30.02
2018-09-06T05:50:23.034Z,30.52
2018-09-06T05:53:00.672Z,29.67
2018-09-06T05:55:36.083Z,26.35
2018-09-06T05:58:12.119Z,27.55
2018-09-06T06:00:48.732Z,26.27
2018-09-06T06:03:23.921Z,26.42
2018-09-06T06:05:59.385Z,24.50
2018-09-06T06:08:45.600Z,24.23
2018-09-06T06:11:21.717Z,28.03
2018-09-06T06:13:57.302Z,20.00
2018-09-06T06:16:32.751Z,21.27
2018-09-06T06:19:08.126Z,19.13
2018-09-06T06:21:43.584Z,18.80
2018-09-06T06:24:19.109Z,19.70
2018-09-06T06:26:54.782Z,20.67
2018-09-06T06:29:30.248Z,19.90
2018-09-06T06:32:05.695Z,22.50
2018-09-06T06:34:41.162Z,25.53
2018-09-06T06:37:17.857Z,21.60
2018-09-06T06:39:53.420Z,21.10
2018-09-06T06:42:28.944Z,22.43
2018-09-06T06:45:04.272Z,24.53
2018-09-06T06:47:39.826Z,21.80
2018-09-06T06:50:15.498Z,26.00
2018-09-06T06:52:50.997Z,31.43
2018-09-06T06:55:26.180Z,24.60
2018-09-06T06:58:01.664Z,28.43
2018-09-06T07:00:41.211Z,20.90
2018-09-06T07:03:16.829Z,22.73
2018-09-06T07:05:52.750Z,29.63
2018-09-06T07:08:28.456Z,23.10
2018-09-06T07:11:03.872Z,25.77
2018-09-06T07:13:39.373Z,22.37
2018-09-06T07:16:14.701Z,21.23
2018-09-06T07:18:50.123Z,24.47
2018-09-06T07:21:25.501Z,22.90
2018-09-06T07:24:01.062Z,23.00
2018-09-06T07:26:36.285Z,22.03
2018-09-06T07:29:11.894Z,20.30
2018-09-06T07:31:47.410Z,22.47
2018-09-06T07:34:24.047Z,25.33
2018-09-06T07:36:59.369Z,21.90
2018-09-06T07:39:34.808Z,23.27
2018-09-06T07:42:10.177Z,22.37
2018-09-06T07:44:52.306Z,25.03
2018-09-06T07:47:27.539Z,29.70
2018-09-06T07:50:03.345Z,28.73
2018-09-06T07:52:38.837Z,25.47
2018-09-06T07:55:14.338Z,26.13
2018-09-06T07:57:49.720Z,28.93
2018-09-06T08:00:25.341Z,28.00
2018-09-06T08:03:00.664Z,32.40
2018-09-06T08:05:36.067Z,29.50
2018-09-06T08:08:11.516Z,29.37
2018-09-06T08:10:46.929Z,30.93
2018-09-06T08:13:22.153Z,28.83
2018-09-06T08:15:57.587Z,29.23
2018-09-06T08:18:32.896Z,24.10
2018-09-06T08:21:08.297Z,30.77
2018-09-06T08:23:43.643Z,29.33
2018-09-06T08:26:19.059Z,27.63
2018-09-06T08:28:54.578Z,29.53
2018-09-06T08:31:30.222Z,32.43
2018-09-06T08:34:05.648Z,31.97
2018-09-06T08:36:41.051Z,34.57
2018-09-06T08:39:16.356Z,29.03
2018-09-06T08:41:51.692Z,29.97
2018-09-06T08:44:27.157Z,26.40
2018-09-06T08:47:02.694Z,31.30
2018-09-06T08:49:38.296Z,28.93
2018-09-06T08:52:13.793Z,25.47
2018-09-06T08:54:49.214Z,26.67
2018-09-06T08:57:24.660Z,28.53
2018-09-06T09:00:00.069Z,28.70
2018-09-06T09:02:35.659Z,28.43
2018-09-06T09:05:11.010Z,23.87
2018-09-06T09:07:47.016Z,36.33
2018-09-06T09:10:22.845Z,26.13
2018-09-06T09:12:58.341Z,27.40
2018-09-06T09:15:33.708Z,23.40
2018-09-06T09:18:09.083Z,34.80
2018-09-06T09:20:44.585Z,30.20
2018-09-06T09:23:20.037Z,22.70
2018-09-06T09:25:55.410Z,26.00
2018-09-06T09:28:30.832Z,25.17
2018-09-06T09:31:06.837Z,24.13
2018-09-06T09:33:42.470Z,28.20
2018-09-06T09:36:17.873Z,25.30
2018-09-06T09:38:53.488Z,26.07
2018-09-06T09:41:28.728Z,22.20
2018-09-06T09:44:04.148Z,23.63
2018-09-06T09:49:14.559Z,23.83
2018-09-06T09:51:50.232Z,28.37
2018-09-06T09:54:25.844Z,26.57
2018-09-06T09:57:02.142Z,23.03
2018-09-06T09:59:37.728Z,24.63
2018-09-06T10:02:18.631Z,21.63
2018-09-06T10:05:01.564Z,20.10
2018-09-06T10:07:42.236Z,23.10
2018-09-06T10:10:17.966Z,23.33
2018-09-06T10:12:53.289Z,21.80
2018-09-06T10:15:29.175Z,23.90
2018-09-06T10:18:04.629Z,22.30
2018-09-06T10:20:40.473Z,24.53
2018-09-06T10:23:16.146Z,18.30
2018-09-06T10:25:51.744Z,22.20
2018-09-06T10:28:27.261Z,22.07
2018-09-06T10:31:02.753Z,23.77
2018-09-06T10:33:38.299Z,25.87
2018-09-06T10:36:13.666Z,21.77
2018-09-06T10:38:49.088Z,20.33
2018-09-06T10:41:24.638Z,19.60
2018-09-06T10:44:00.289Z,19.00
2018-09-06T10:46:35.662Z,19.57
2018-09-06T10:49:11.275Z,19.00
2018-09-06T10:51:46.757Z,18.13
2018-09-06T10:54:22.397Z,19.63
2018-09-06T10:56:57.797Z,20.70
2018-09-06T10:59:33.245Z,19.13
2018-09-06T11:02:08.687Z,22.43
2018-09-06T11:04:44.289Z,27.27
2018-09-06T11:07:19.709Z,16.73
2018-09-06T11:09:55.177Z,18.23
2018-09-06T11:12:30.512Z,24.73
2018-09-06T11:15:06.545Z,32.93
2018-09-06T11:17:42.824Z,19.70
2018-09-06T11:20:19.009Z,20.80
2018-09-06T11:22:54.257Z,22.87
2018-09-06T11:25:29.697Z,19.30
2018-09-06T11:28:05.197Z,22.17
2018-09-06T11:30:40.887Z,18.67
2018-09-06T11:33:16.163Z,21.50
2018-09-06T11:35:51.886Z,18.10
2018-09-06T11:38:27.616Z,15.07
2018-09-06T11:41:03.140Z,17.40
2018-09-06T11:43:38.471Z,24.73
2018-09-06T11:46:14.125Z,18.97
2018-09-06T11:48:49.566Z,15.73
2018-09-06T11:51:25.480Z,16.00
2018-09-06T11:54:00.800Z,18.30
2018-09-06T11:56:36.396Z,17.03
2018-09-06T11:59:11.792Z,20.83
2018-09-06T12:01:47.339Z,17.93
2018-09-06T12:04:22.855Z,18.30
2018-09-06T12:06:58.419Z,15.40
2018-09-06T12:09:33.777Z,13.13
2018-09-06T12:12:09.311Z,17.63
2018-09-06T12:14:44.782Z,17.17
2018-09-06T12:17:20.278Z,21.43
2018-09-06T12:19:55.568Z,15.83
2018-09-06T12:22:31.195Z,18.13
2018-09-06T12:25:06.924Z,23.83
2018-09-06T12:27:43.247Z,13.97
2018-09-06T12:30:18.965Z,16.17
2018-09-06T12:32:54.836Z,21.13
2018-09-06T12:35:30.262Z,14.90
2018-09-06T12:38:06.138Z,15.53
2018-09-06T12:40:41.616Z,12.23
2018-09-06T12:43:24.198Z,19.43
2018-09-06T12:45:59.758Z,18.20
2018-09-06T12:48:35.129Z,24.30
2018-09-06T12:51:10.815Z,13.53
2018-09-06T12:53:46.116Z,14.73
2018-09-06T12:56:21.557Z,15.30
2018-09-06T12:58:56.773Z,13.40
2018-09-06T13:01:32.384Z,16.70
2018-09-06T13:04:08.008Z,15.63
2018-09-06T13:06:43.631Z,21.03
2018-09-06T13:09:19.077Z,23.93
2018-09-06T13:11:54.686Z,12.40
2018-09-06T13:14:29.912Z,15.53
2018-09-06T13:17:05.518Z,13.07
2018-09-06T13:19:40.901Z,14.83
2018-09-06T13:22:16.612Z,14.17
2018-09-06T13:24:52.080Z,15.47
2018-09-06T13:27:27.514Z,20.67
2018-09-06T13:30:03.061Z,15.13
2018-09-06T13:32:38.645Z,12.43
2018-09-06T13:35:14.186Z,17.90
2018-09-06T13:37:49.658Z,14.60
2018-09-06T13:40:25.169Z,13.50
2018-09-06T13:43:00.957Z,15.87
2018-09-06T13:45:37.318Z,12.83
2018-09-06T13:48:12.848Z,12.80
2018-09-06T13:50:48.426Z,16.93
2018-09-06T13:53:24.065Z,13.00
2018-09-06T13:56:00.342Z,16.73
2018-09-06T13:58:36.230Z,13.97
2018-09-06T14:01:11.567Z,21.93
2018-09-06T14:03:47.039Z,13.13
2018-09-06T14:06:22.489Z,15.03
2018-09-06T14:08:58.029Z,18.43
2018-09-06T14:11:33.324Z,13.40
2018-09-06T14:14:08.864Z,15.47
2018-09-06T14:16:44.326Z,12.07
2018-09-06T14:19:19.695Z,12.80
2018-09-06T14:21:55.137Z,11.80
2018-09-06T14:24:30.612Z,14.10
2018-09-06T14:27:06.177Z,13.30
2018-09-06T14:29:41.934Z,14.70
2018-09-06T14:32:17.410Z,12.03
2018-09-06T14:34:52.945Z,14.87
2018-09-06T14:37:28.256Z,12.57
2018-09-06T14:40:03.667Z,17.33
2018-09-06T14:42:38.988Z,13.00
2018-09-06T14:45:15.442Z,15.90
2018-09-06T14:47:50.728Z,19.73
2018-09-06T14:50:26.328Z,15.50
2018-09-06T14:53:01.873Z,12.60
2018-09-06T14:55:37.530Z,13.10
2018-09-06T14:58:12.897Z,17.03
2018-09-06T15:00:48.557Z,12.10
2018-09-06T15:03:23.992Z,14.50
2018-09-06T15:05:59.943Z,18.40
2018-09-06T15:08:35.504Z,18.53
2018-09-06T15:11:11.053Z,19.03
2018-09-06T15:13:46.542Z,17.73
2018-09-06T15:16:22.196Z,12.63
2018-09-06T15:18:57.621Z,13.33
2018-09-06T15:21:33.407Z,15.73
2018-09-06T15:24:08.936Z,16.10
2018-09-06T15:26:44.384Z,11.30
2018-09-06T15:29:19.600Z,14.20
2018-09-06T15:31:54.913Z,19.20
2018-09-06T15:34:30.787Z,13.33
2018-09-06T15:37:06.300Z,12.43
2018-09-06T15:39:41.642Z,15.70
2018-09-06T15:42:17.128Z,14.43
2018-09-06T15:44:52.573Z,13.77
2018-09-06T15:47:28.175Z,10.60
2018-09-06T15:50:03.698Z,16.53
2018-09-06T15:52:39.749Z,15.83
2018-09-06T15:55:15.151Z,11.20
2018-09-06T15:57:50.597Z,14.47
2018-09-06T16:00:26.097Z,12.73
2018-09-06T16:03:01.673Z,12.47
2018-09-06T16:05:37.868Z,11.70
2018-09-06T16:08:13.391Z,16.73
2018-09-06T16:10:49.718Z,16.80
2018-09-06T16:13:25.649Z,13.83
2018-09-06T16:16:00.924Z,11.60
2018-09-06T16:18:36.458Z,14.53
2018-09-06T16:21:11.924Z,12.47
2018-09-06T16:23:47.544Z,11.80
2018-09-06T16:26:22.969Z,14.57
2018-09-06T16:28:58.580Z,16.13
2018-09-06T16:31:34.030Z,10.73
2018-09-06T16:34:09.594Z,12.00
2018-09-06T16:36:44.878Z,16.53
2018-09-06T16:39:20.657Z,27.47
2018-09-06T16:41:56.019Z,15.33
2018-09-06T16:44:31.577Z,13.73
2018-09-06T16:47:07.069Z,12.00
2018-09-06T16:49:42.644Z,16.23
2018-09-06T16:52:18.262Z,13.03
2018-09-06T16:54:54.870Z,26.13
2018-09-06T16:57:30.586Z,18.07
2018-09-06T17:00:06.561Z,11.93
2018-09-06T17:02:42.499Z,14.40
2018-09-06T17:05:17.909Z,14.27
2018-09-06T17:07:53.519Z,12.97
2018-09-06T17:10:29.946Z,11.10
2018-09-06T17:13:05.679Z,10.90
2018-09-06T17:15:41.051Z,16.90
2018-09-06T17:18:16.487Z,17.03
2018-09-06T17:20:51.912Z,14.43
2018-09-06T17:23:27.502Z,13.70
2018-09-06T17:26:02.823Z,16.20
2018-09-06T17:28:38.400Z,13.03
2018-09-06T17:31:13.768Z,27.53
2018-09-06T17:33:49.696Z,15.03
2018-09-06T17:36:25.613Z,13.07
2018-09-06T17:39:01.300Z,13.90
2018-09-06T17:41:36.692Z,23.50
2018-09-06T17:44:12.448Z,17.50
2018-09-06T17:46:47.866Z,13.53
2018-09-06T17:49:23.549Z,14.70
2018-09-06T17:51:59.237Z,14.67
2018-09-06T17:54:34.860Z,14.87
2018-09-06T17:57:10.506Z,16.73
2018-09-06T17:59:46.345Z,15.77
2018-09-06T18:02:21.901Z,16.60
2018-09-06T18:04:57.804Z,15.73
2018-09-06T18:07:33.190Z,12.47
2018-09-06T18:10:08.817Z,15.90
2018-09-06T18:12:44.365Z,18.00
2018-09-06T18:15:20.380Z,14.30
2018-09-06T18:17:56.029Z,20.60
2018-09-06T18:20:31.633Z,20.03
2018-09-06T18:23:07.380Z,21.80
2018-09-06T18:25:42.898Z,14.97
2018-09-06T18:28:19.947Z,25.40
2018-09-06T18:30:55.337Z,17.63
2018-09-06T18:33:31.220Z,17.90
2018-09-06T18:36:06.593Z,19.40
2018-09-06T18:38:42.559Z,18.13
2018-09-06T18:41:18.629Z,18.60
2018-09-06T18:43:53.958Z,18.17
2018-09-06T18:46:29.444Z,15.87
2018-09-06T18:49:05.012Z,23.17
2018-09-06T18:51:40.554Z,19.00
2018-09-06T18:54:16.014Z,19.67
2018-09-06T18:56:51.399Z,16.27
2018-09-06T18:59:27.143Z,31.67
2018-09-06T19:02:02.735Z,20.53
2018-09-06T19:04:38.353Z,22.83
2018-09-06T19:07:13.807Z,20.53
2018-09-06T19:09:49.537Z,25.80
2018-09-06T19:12:25.120Z,24.77
2018-09-06T19:15:00.662Z,26.83
2018-09-06T19:17:36.141Z,19.47
2018-09-06T19:20:12.105Z,22.37
2018-09-06T19:22:47.525Z,18.70
2018-09-06T19:25:24.861Z,20.97
2018-09-06T19:28:00.349Z,28.73
2018-09-06T19:30:36.081Z,22.93
2018-09-06T19:33:11.525Z,31.43
2018-09-06T19:35:47.681Z,22.30
2018-09-06T19:38:23.248Z,20.83
2018-09-06T19:40:58.613Z,34.60
2018-09-06T19:43:34.152Z,22.90
2018-09-06T19:46:10.051Z,21.37
2018-09-06T19:48:46.089Z,20.63
2018-09-06T19:51:21.515Z,22.57
2018-09-06T19:53:56.985Z,27.57
2018-09-06T19:56:32.396Z,25.70
2018-09-06T19:59:07.724Z,22.37
2018-09-06T20:01:42.973Z,21.70
2018-09-06T20:04:18.452Z,28.60
2018-09-06T20:06:54.001Z,25.27
2018-09-06T20:09:29.633Z,33.00
2018-09-06T20:12:05.185Z,32.70
2018-09-06T20:14:41.301Z,36.47
2018-09-06T20:17:16.633Z,28.70
2018-09-06T20:19:52.274Z,34.70
2018-09-06T20:22:27.805Z,35.23
2018-09-06T20:25:03.937Z,35.17
2018-09-06T20:27:40.358Z,32.90
2018-09-06T20:30:16.808Z,33.37
2018-09-06T20:32:52.541Z,38.20
2018-09-06T20:35:27.968Z,35.20
2018-09-06T20:38:09.805Z,41.37
2018-09-06T20:40:45.309Z,35.07
2018-09-06T20:43:20.613Z,50.50
2018-09-06T20:45:56.647Z,38.77
2018-09-06T20:48:32.079Z,43.20
2018-09-06T20:51:07.989Z,40.50
2018-09-06T20:53:43.820Z,38.90
2018-09-06T20:56:19.760Z,41.57
2018-09-06T20:58:55.092Z,41.93
2018-09-06T21:01:30.746Z,52.23
2018-09-06T21:04:13.954Z,47.30
2018-09-06T21:06:50.401Z,50.73
2018-09-06T21:09:26.717Z,42.60
2018-09-06T21:12:03.636Z,38.93
2018-09-06T21:14:40.236Z,43.87
2018-09-06T21:17:15.803Z,49.40
2018-09-06T21:19:51.469Z,48.57
2018-09-06T21:22:27.248Z,40.00
2018-09-06T21:25:04.283Z,40.70
2018-09-06T21:27:40.077Z,45.80
2018-09-06T21:30:15.912Z,41.20
2018-09-06T21:32:52.068Z,45.20
2018-09-06T21:35:28.108Z,54.70
2018-09-06T21:38:03.581Z,48.23
2018-09-06T21:40:39.535Z,44.27
2018-09-06T21:43:15.061Z,54.37
2018-09-06T21:45:50.880Z,49.73
2018-09-06T21:48:27.752Z,52.07
2018-09-06T21:51:03.756Z,45.10
2018-09-06T21:53:41.060Z,56.00
2018-09-06T21:56:17.025Z,53.70
2018-09-06T21:58:52.752Z,57.30
2018-09-06T22:01:28.337Z,61.60
2018-09-06T22:04:06.512Z,77.97
2018-09-06T22:06:42.666Z,50.43
2018-09-06T22:09:18.233Z,54.70
2018-09-06T22:11:53.464Z,61.13
2018-09-06T22:14:29.149Z,61.10
2018-09-06T22:17:05.220Z,58.70
2018-09-06T22:19:41.117Z,56.80
2018-09-06T22:22:16.946Z,57.50
2018-09-06T22:24:52.602Z,63.80
2018-09-06T22:27:31.322Z,81.03
2018-09-06T22:30:07.945Z,71.40
2018-09-06T22:32:43.416Z,61.50
2018-09-06T22:35:19.800Z,77.30
2018-09-06T22:37:55.476Z,85.57
2018-09-06T22:40:31.272Z,64.70
2018-09-06T22:43:06.689Z,66.33
2018-09-06T22:45:42.383Z,63.00
2018-09-06T22:48:17.643Z,69.17
2018-09-06T22:50:54.895Z,76.87
2018-09-06T22:53:31.094Z,72.63
2018-09-06T22:56:06.599Z,73.00
2018-09-06T22:58:42.325Z,86.30
2018-09-06T23:01:17.940Z,88.97
2018-09-06T23:03:54.469Z,75.67
2018-09-06T23:06:31.527Z,73.77
2018-09-06T23:09:08.993Z,78.87
2018-09-06T23:11:44.412Z,76.53
2018-09-06T23:14:19.784Z,74.30
2018-09-06T23:16:59.268Z,74.80
2018-09-06T23:19:34.758Z,77.27
2018-09-06T23:22:10.360Z,84.03
2018-09-06T23:24:45.721Z,92.33
2018-09-06T23:27:21.184Z,74.07
2018-09-06T23:29:56.510Z,83.63
2018-09-06T23:32:32.097Z,76.33
2018-09-06T23:35:07.545Z,75.80
2018-09-06T23:37:43.194Z,83.60
2018-09-06T23:40:18.767Z,86.50
2018-09-06T23:42:55.205Z,86.67
2018-09-06T23:45:30.648Z,96.87
2018-09-06T23:48:06.024Z,85.73
2018-09-06T23:50:41.512Z,96.27
2018-09-06T23:53:16.950Z,84.80
2018-09-06T23:55:52.213Z,81.97
2018-09-06T23:58:27.780Z,65.20
